Time;durP1;ratioP1;P1;durP2;ratioP2;P2;SDS_P1;SDS_P2;PMS_P1;PMS_P2;Temp;Humidity;BMP_temperature;BMP_pressure;BME280_temperature;BME280_humidity;BME280_pressure;Samples;Min_cycle;Max_cycle;Signal;HPM_P1;HPM_P2
2023/05/21 00:00:51;;;;;;;;;;;;;;;;;;5044875;28;19921;-85
2023/05/21 00:03:40;;;;;;;;;;;;;;;;;;5034648;28;19927;-84
2023/05/21 00:06:27;;;;;;;;;;;;;;;;;;5035349;28;20285;-85
2023/05/21 00:09:13;;;;;;;;;;;;;;;;;;5028267;28;19917;-85
2023/05/21 00:12:00;;;;;;;;;;;;;;;;;;5037348;28;19913;-86
2023/05/21 00:14:46;;;;;;;;;;;;;;;;;;5030128;28;19958;-87
2023/05/21 00:17:35;;;;;;;;;;;;;;;;;;5036180;28;20284;-87
2023/05/21 00:20:22;;;;;;;;;;;;;;;;;;5044350;28;19924;-85
2023/05/21 00:23:09;;;;;;;;;;;;;;;;;;5042666;28;19925;-87
2023/05/21 00:25:55;;;;;;;;;;;;;;;;;;5038131;28;20420;-85
2023/05/21 00:28:42;;;;;;;;;;;;;;;;;;5039900;28;19928;-87
2023/05/21 00:31:28;;;;;;;;;;;;;;;;;;5047204;28;19920;-87
2023/05/21 00:34:15;;;;;;;;;;;;;;;;;;5048849;28;19924;-88
2023/05/21 00:37:01;;;;;;;;;;;;;;;;;;5045255;28;20260;-88
2023/05/21 00:39:48;;;;;;;;;;;;;;;;;;5039372;28;19921;-88
2023/05/21 00:42:39;;;;;;;;;;;;;;;;;;5025635;28;19925;-89
2023/05/21 00:45:25;;;;;;;;;;;;;;;;;;5030737;28;19921;-89
2023/05/21 00:48:12;;;;;;;;;;;;;;;;;;5036934;28;19942;-88
2023/05/21 00:50:58;;;;;;;;;;;;;;;;;;5037978;28;20385;-87
2023/05/21 00:53:45;;;;;;;;;;;;;;;;;;5038013;28;19928;-88
2023/05/21 00:56:31;;;;;;;;;;;;;;;;;;5032491;28;20643;-88
2023/05/21 00:59:18;;;;;;;;;;;;;;;;;;5034039;28;19921;-88
2023/05/21 01:02:05;;;;;;;;;;;;;;;;;;5036820;28;20299;-87
2023/05/21 01:04:51;;;;;;;;;;;;;;;;;;5062320;28;19920;-87
2023/05/21 01:07:38;;;;;;;;;;;;;;;;;;5041286;28;20349;-88
2023/05/21 01:10:25;;;;;;;;;;;;;;;;;;5034652;28;19924;-86
2023/05/21 01:13:11;;;;;;;;;;;;;;;;;;5039657;28;19925;-86
2023/05/21 01:15:58;;;;;;;;;;;;;;;;;;5045330;28;19929;-88
2023/05/21 01:18:45;;;;;;;;;;;;;;;;;;5036570;28;19920;-89
2023/05/21 01:21:34;;;;;;;;;;;;;;;;;;5035576;28;19929;-90
2023/05/21 01:24:20;;;;;;;;;;;;;;;;;;5049359;28;19920;-88
2023/05/21 01:27:09;;;;;;;;;;;;;;;;;;5050426;28;20403;-89
2023/05/21 01:29:55;;;;;;;;;;;;;;;;;;5053239;28;20380;-88
2023/05/21 01:32:42;;;;;;;;;;;;;;;;;;5044343;28;19923;-89
2023/05/21 01:35:28;;;;;;;;;;;;;;;;;;5059424;28;19920;-89
2023/05/21 01:38:15;;;;;;;;;;;;;;;;;;5046115;28;19940;-89
2023/05/21 01:41:04;;;;;;;;;;;;;;;;;;5053306;28;19923;-92
2023/05/21 01:43:51;;;;;;;;;;;;;;;;;;5061524;28;21408;-91
2023/05/21 01:46:37;;;;;;;;;;;;;;;;;;5054137;28;19917;-91
2023/05/21 01:49:24;;;;;;;;;;;;;;;;;;5059986;28;20268;-91
2023/05/21 01:52:11;;;;;;;;;;;;;;;;;;5057162;28;19917;-92
2023/05/21 01:54:59;;;;;;;;;;;;;;;;;;5066115;28;19924;-92
2023/05/21 01:57:45;;;;;;;;;;;;;;;;;;5043687;28;19927;-92
2023/05/21 02:00:33;;;;;;;;;;;;;;;;;;5056237;28;19925;-92
2023/05/21 02:03:20;;;;;;;;;;;;;;;;;;5049057;28;20308;-91
2023/05/21 02:06:06;;;;;;;;;;;;;;;;;;5054179;28;19917;-91
2023/05/21 02:08:54;;;;;;;;;;;;;;;;;;5043753;28;20396;-90
2023/05/21 02:11:40;;;;;;;;;;;;;;;;;;5047433;28;19931;-91
2023/05/21 02:14:28;;;;;;;;;;;;;;;;;;5048253;28;19917;-88
2023/05/21 02:17:16;;;;;;;;;;;;;;;;;;5048496;28;19925;-91
2023/05/21 02:20:12;;;;;;;;;;;;;;;;;;5051182;28;19921;-89
2023/05/21 02:22:58;;;;;;;;;;;;;;;;;;5056898;28;19925;-89
2023/05/21 02:25:45;;;;;;;;;;;;;;;;;;5046992;28;19916;-89
2023/05/21 02:28:31;;;;;;;;;;;;;;;;;;5047876;28;19916;-89
2023/05/21 02:31:18;;;;;;;;;;;;;;;;;;5045357;28;19924;-89
2023/05/21 02:34:06;;;;;;;;;;;;;;;;;;5039086;28;19924;-89
2023/05/21 02:36:53;;;;;;;;;;;;;;;;;;5038536;28;19924;-89
2023/05/21 02:39:39;;;;;;;;;;;;;;;;;;5033563;28;19968;-88
2023/05/21 02:42:26;;;;;;;;;;;;;;;;;;5037274;28;19932;-87
2023/05/21 02:45:12;;;;;;;;;;;;;;;;;;5047917;28;19927;-90
2023/05/21 02:47:59;;;;;;;;;;;;;;;;;;5041605;28;19917;-92
2023/05/21 02:50:46;;;;;;;;;;;;;;;;;;5031167;28;19928;-91
2023/05/21 02:53:32;;;;;;;;;;;;;;;;;;5046641;28;19931;-91
2023/05/21 02:56:19;;;;;;;;;;;;;;;;;;5042393;28;19927;-91
2023/05/21 02:59:05;;;;;;;;;;;;;;;;;;5044592;28;19916;-90
2023/05/21 03:01:52;;;;;;;;;;;;;;;;;;5041186;28;19921;-91
2023/05/21 03:04:44;;;;;;;;;;;;;;;;;;5053524;28;19920;-91
2023/05/21 03:07:31;;;;;;;;;;;;;;;;;;5038670;28;19917;-92
2023/05/21 03:10:17;;;;;;;;;;;;;;;;;;5046949;28;19988;-92
2023/05/21 03:13:05;;;;;;;;;;;;;;;;;;5039514;28;19917;-92
2023/05/21 03:15:55;;;;;;;;;;;;;;;;;;5037758;28;19926;-92
2023/05/21 03:18:42;;;;;;;;;;;;;;;;;;5058694;28;19920;-91
2023/05/21 03:21:30;;;;;;;;;;;;;;;;;;5054039;28;19921;-93
2023/05/21 03:24:17;;;;;;;;;;;;;;;;;;5038811;28;20318;-93
2023/05/21 03:27:05;;;;;;;;;;;;;;;;;;5052819;28;19947;-91
2023/05/21 03:29:54;;;;;;;;;;;;;;;;;;5038948;28;19940;-90
2023/05/21 03:32:43;;;;;;;;;;;;;;;;;;5041758;28;19920;-91
2023/05/21 03:35:30;;;;;;;;;;;;;;;;;;5045490;28;20643;-88
2023/05/21 03:38:16;;;;;;;;;;;;;;;;;;5044019;28;19913;-88
2023/05/21 03:41:03;;;;;;;;;;;;;;;;;;5037773;28;20368;-89
2023/05/21 03:43:49;;;;;;;;;;;;;;;;;;5051926;28;19940;-89
2023/05/21 03:46:36;;;;;;;;;;;;;;;;;;5038113;28;20459;-88
2023/05/21 03:49:22;;;;;;;;;;;;;;;;;;5050139;28;20474;-88
2023/05/21 03:52:09;;;;;;;;;;;;;;;;;;5050814;28;19920;-88
2023/05/21 03:54:55;;;;;;;;;;;;;;;;;;5051235;28;19921;-88
2023/05/21 03:57:42;;;;;;;;;;;;;;;;;;5046522;28;19921;-86
2023/05/21 04:00:28;;;;;;;;;;;;;;;;;;5037384;28;20601;-86
2023/05/21 04:03:15;;;;;;;;;;;;;;;;;;5057342;28;19935;-88
2023/05/21 04:06:01;;;;;;;;;;;;;;;;;;5047934;28;19931;-90
2023/05/21 04:08:48;;;;;;;;;;;;;;;;;;5050748;28;20387;-86
2023/05/21 04:11:35;;;;;;;;;;;;;;;;;;5064972;28;19954;-86
2023/05/21 04:14:22;;;;;;;;;;;;;;;;;;5055900;28;19920;-86
2023/05/21 04:17:08;;;;;;;;;;;;;;;;;;5047764;28;20405;-87
2023/05/21 04:19:55;;;;;;;;;;;;;;;;;;5054452;28;19928;-88
2023/05/21 04:22:41;;;;;;;;;;;;;;;;;;5048361;28;19936;-87
2023/05/21 04:25:28;;;;;;;;;;;;;;;;;;5059711;28;19929;-87
2023/05/21 04:28:18;;;;;;;;;;;;;;;;;;5046607;28;19928;-88
2023/05/21 04:31:07;;;;;;;;;;;;;;;;;;5049856;28;19921;-89
2023/05/21 04:33:53;;;;;;;;;;;;;;;;;;5063048;28;20391;-89
2023/05/21 04:36:40;;;;;;;;;;;;;;;;;;5044436;28;19927;-87
2023/05/21 04:39:27;;;;;;;;;;;;;;;;;;5035796;28;19952;-87
2023/05/21 04:42:14;;;;;;;;;;;;;;;;;;5059132;28;19936;-88
2023/05/21 04:45:00;;;;;;;;;;;;;;;;;;5042269;28;19943;-87
2023/05/21 04:47:47;;;;;;;;;;;;;;;;;;5062657;28;19926;-89
2023/05/21 04:50:33;;;;;;;;;;;;;;;;;;5058721;28;19926;-91
2023/05/21 04:53:20;;;;;;;;;;;;;;;;;;5060121;28;20394;-89
2023/05/21 04:56:08;;;;;;;;;;;;;;;;;;5057657;28;19921;-90
2023/05/21 04:58:57;;;;;;;;;;;;;;;;;;5038604;28;20281;-92
2023/05/21 05:01:44;;;;;;;;;;;;;;;;;;5039452;28;19916;-89
2023/05/21 05:04:30;;;;;;;;;;;;;;;;;;5063361;28;19925;-86
2023/05/21 05:07:16;;;;;;;;;;;;;;;;;;5042831;28;19917;-88
2023/05/21 05:10:03;;;;;;;;;;;;;;;;;;5035849;28;20015;-88
2023/05/21 05:12:49;;;;;;;;;;;;;;;;;;5043216;28;19924;-87
2023/05/21 05:15:36;;;;;;;;;;;;;;;;;;5066549;28;20504;-86
2023/05/21 05:18:22;;;;;;;;;;;;;;;;;;5060521;28;19951;-87
2023/05/21 05:21:09;;;;;;;;;;;;;;;;;;5047610;28;19928;-88
2023/05/21 05:23:55;;;;;;;;;;;;;;;;;;5041849;28;19936;-88
2023/05/21 05:26:42;;;;;;;;;;;;;;;;;;5055631;28;20253;-86
2023/05/21 05:29:28;;;;;;;;;;;;;;;;;;5040350;28;19928;-87
2023/05/21 05:32:15;;;;;;;;;;;;;;;;;;5042805;28;20308;-88
2023/05/21 05:35:01;;;;;;;;;;;;;;;;;;5038783;28;19925;-88
2023/05/21 05:37:48;;;;;;;;;;;;;;;;;;5043491;28;20245;-89
2023/05/21 05:40:34;;;;;;;;;;;;;;;;;;5052386;28;19916;-88
2023/05/21 05:43:21;;;;;;;;;;;;;;;;;;5053138;28;19928;-89
2023/05/21 05:46:07;;;;;;;;;;;;;;;;;;5043072;28;19924;-87
2023/05/21 05:48:54;;;;;;;;;;;;;;;;;;5033067;28;19916;-88
2023/05/21 05:51:40;;;;;;;;;;;;;;;;;;5049221;28;19917;-88
2023/05/21 05:54:27;;;;;;;;;;;;;;;;;;5032355;28;19913;-89
2023/05/21 05:57:13;;;;;;;;;;;;;;;;;;5040374;28;19924;-90
2023/05/21 06:00:00;;;;;;;;;;;;;;;;;;5056173;28;20006;-89
2023/05/21 06:02:47;;;;;;;;;;;;;;;;;;5036556;28;19925;-90
2023/05/21 06:05:35;;;;;;;;;;;;;;;;;;5042290;28;19921;-89
2023/05/21 06:08:22;;;;;;;;;;;;;;;;;;5047201;28;20329;-88
2023/05/21 06:11:09;;;;;;;;;;;;;;;;;;5056608;28;19916;-90
2023/05/21 06:13:56;;;;;;;;;;;;;;;;;;5054179;28;20394;-90
2023/05/21 06:16:42;;;;;;;;;;;;;;;;;;5062929;28;19955;-88
2023/05/21 06:19:29;;;;;;;;;;;;;;;;;;5064927;28;19994;-90
2023/05/21 06:22:15;;;;;;;;;;;;;;;;;;5062680;28;19924;-89
2023/05/21 06:25:02;;;;;;;;;;;;;;;;;;5045699;28;19917;-82
2023/05/21 06:27:48;;;;;;;;;;;;;;;;;;5042143;28;19921;-87
2023/05/21 06:30:35;;;;;;;;;;;;;;;;;;5041762;28;19921;-87
2023/05/21 06:33:23;;;;;;;;;;;;;;;;;;5063320;28;19916;-87
2023/05/21 06:36:10;;;;;;;;;;;;;;;;;;5066182;28;20374;-88
2023/05/21 06:38:56;;;;;;;;;;;;;;;;;;5042098;28;20379;-87
2023/05/21 06:41:43;;;;;;;;;;;;;;;;;;5043495;28;19923;-88
2023/05/21 06:44:29;;;;;;;;;;;;;;;;;;5039778;28;19928;-87
2023/05/21 06:47:16;;;;;;;;;;;;;;;;;;5044281;28;20308;-87
2023/05/21 06:50:02;;;;;;;;;;;;;;;;;;5047813;28;19939;-86
2023/05/21 06:52:49;;;;;;;;;;;;;;;;;;5059432;28;19917;-85
2023/05/21 06:55:36;;;;;;;;;;;;;;;;;;5046541;28;19917;-86
2023/05/21 06:58:22;;;;;;;;;;;;;;;;;;5045226;28;19958;-88
2023/05/21 07:01:09;;;;;;;;;;;;;;;;;;5042946;28;19917;-89
2023/05/21 07:03:55;;;;;;;;;;;;;;;;;;5040746;28;20488;-87
2023/05/21 07:06:42;;;;;;;;;;;;;;;;;;5044955;28;19924;-81
2023/05/21 07:09:28;;;;;;;;;;;;;;;;;;5052442;28;19920;-79
2023/05/21 07:12:14;;;;;;;;;;;;;;;;;;5042732;28;19917;-81
2023/05/21 07:15:01;;;;;;;;;;;;;;;;;;5043283;28;19936;-81
2023/05/21 07:17:47;;;;;;;;;;;;;;;;;;5030273;28;19927;-79
2023/05/21 07:20:34;;;;;;;;;;;;;;;;;;5037474;28;19940;-81
2023/05/21 07:23:20;;;;;;;;;;;;;;;;;;5048063;28;19929;-82
2023/05/21 07:26:07;;;;;;;;;;;;;;;;;;5054658;28;20447;-79
2023/05/21 07:28:53;;;;;;;;;;;;;;;;;;5036502;28;19913;-80
2023/05/21 07:31:40;;;;;;;;;;;;;;;;;;5038177;28;19916;-80
2023/05/21 07:34:26;;;;;;;;;;;;;;;;;;5037228;28;20119;-81
2023/05/21 07:37:13;;;;;;;;;;;;;;;;;;5033158;28;19917;-79
2023/05/21 07:39:59;;;;;;;;;;;;;;;;;;5041606;28;19928;-79
2023/05/21 07:42:46;;;;;;;;;;;;;;;;;;5044472;28;19935;-79
2023/05/21 07:45:32;;;;;;;;;;;;;;;;;;5052811;28;19928;-80
2023/05/21 07:48:19;;;;;;;;;;;;;;;;;;5043223;28;19921;-79
2023/05/21 07:51:05;;;;;;;;;;;;;;;;;;5043996;28;19914;-80
2023/05/21 07:53:52;;;;;;;;;;;;;;;;;;5059356;28;19931;-79
2023/05/21 07:56:38;;;;;;;;;;;;;;;;;;5050185;28;19942;-80
2023/05/21 07:59:25;;;;;;;;;;;;;;;;;;5045925;28;19924;-79
2023/05/21 08:02:11;;;;;;;;;;;;;;;;;;5045631;28;19936;-81
2023/05/21 08:04:58;;;;;;;;;;;;;;;;;;5038415;28;19924;-81
2023/05/21 08:07:45;;;;;;;;;;;;;;;;;;5070999;28;19916;-79
2023/05/21 08:10:31;;;;;;;;;;;;;;;;;;5050961;28;19929;-79
2023/05/21 08:13:18;;;;;;;;;;;;;;;;;;5038493;28;19959;-80
2023/05/21 08:16:04;;;;;;;;;;;;;;;;;;5045306;28;20577;-80
2023/05/21 08:18:51;;;;;;;;;;;;;;;;;;5032172;28;19920;-79
2023/05/21 08:21:37;;;;;;;;;;;;;;;;;;5029099;28;19920;-80
2023/05/21 08:24:25;;;;;;;;;;;;;;;;;;5038170;28;19940;-80
2023/05/21 08:27:11;;;;;;;;;;;;;;;;;;5057702;28;19921;-80
2023/05/21 08:29:58;;;;;;;;;;;;;;;;;;5034738;28;20416;-80
2023/05/21 08:32:44;;;;;;;;;;;;;;;;;;5032143;28;19927;-80
2023/05/21 08:35:31;;;;;;;;;;;;;;;;;;5032856;28;19913;-80
2023/05/21 08:38:17;;;;;;;;;;;;;;;;;;5045884;28;19916;-80
2023/05/21 08:41:04;;;;;;;;;;;;;;;;;;5045160;28;20976;-82
2023/05/21 08:43:50;;;;;;;;;;;;;;;;;;5050448;28;20394;-80
2023/05/21 08:46:37;;;;;;;;;;;;;;;;;;5054513;28;19917;-80
2023/05/21 08:49:23;;;;;;;;;;;;;;;;;;5040982;28;19921;-81
2023/05/21 08:52:09;;;;;;;;;;;;;;;;;;5031920;28;20384;-84
2023/05/21 08:54:56;;;;;;;;;;;;;;;;;;5041737;28;19917;-83
2023/05/21 08:57:42;;;;;;;;;;;;;;;;;;5050843;28;19921;-84
2023/05/21 09:00:29;;;;;;;;;;;;;;;;;;5047504;28;19924;-84
2023/05/21 09:03:15;;;;;;;;;;;;;;;;;;5047313;28;20463;-84
2023/05/21 09:06:02;;;;;;;;;;;;;;;;;;5048640;28;19920;-82
2023/05/21 09:08:48;;;;;;;;;;;;;;;;;;5050745;28;20001;-82
2023/05/21 09:11:35;;;;;;;;;;;;;;;;;;5061372;28;19927;-85
2023/05/21 09:14:21;;;;;;;;;;;;;;;;;;5040573;28;20540;-84
2023/05/21 09:17:08;;;;;;;;;;;;;;;;;;5059500;28;19933;-83
2023/05/21 09:19:54;;;;;;;;;;;;;;;;;;5039642;28;20384;-83
2023/05/21 09:22:41;;;;;;;;;;;;;;;;;;5041390;28;19929;-86
2023/05/21 09:25:28;;;;;;;;;;;;;;;;;;5038787;28;19931;-83
2023/05/21 09:28:14;;;;;;;;;;;;;;;;;;5035330;28;20627;-81
2023/05/21 09:31:01;;;;;;;;;;;;;;;;;;5038670;28;20022;-82
2023/05/21 09:33:47;;;;;;;;;;;;;;;;;;5040831;28;19960;-82
2023/05/21 09:36:34;;;;;;;;;;;;;;;;;;5053021;28;19932;-81
2023/05/21 09:39:20;;;;;;;;;;;;;;;;;;5046270;28;19946;-81
2023/05/21 09:42:07;;;;;;;;;;;;;;;;;;5037353;28;19921;-81
2023/05/21 09:44:53;;;;;;;;;;;;;;;;;;5037384;28;20291;-82
2023/05/21 09:47:40;;;;;;;;;;;;;;;;;;5048339;28;19921;-82
2023/05/21 09:50:26;;;;;;;;;;;;;;;;;;5041833;28;19913;-81
2023/05/21 09:53:13;;;;;;;;;;;;;;;;;;5058572;28;19916;-82
2023/05/21 09:55:59;;;;;;;;;;;;;;;;;;5049574;28;19913;-81
2023/05/21 09:58:46;;;;;;;;;;;;;;;;;;5048953;28;19916;-82
2023/05/21 10:01:33;;;;;;;;;;;;;;;;;;5059251;28;19923;-82
2023/05/21 10:04:19;;;;;;;;;;;;;;;;;;5065763;28;20388;-82
2023/05/21 10:07:06;;;;;;;;;;;;;;;;;;5043156;28;19916;-80
2023/05/21 10:09:53;;;;;;;;;;;;;;;;;;5056917;28;19932;-85
2023/05/21 10:12:40;;;;;;;;;;;;;;;;;;5056735;28;20273;-86
2023/05/21 10:15:26;;;;;;;;;;;;;;;;;;5044190;28;19932;-86
2023/05/21 10:18:13;;;;;;;;;;;;;;;;;;5040945;28;20289;-86
2023/05/21 10:20:59;;;;;;;;;;;;;;;;;;5048713;28;19921;-85
2023/05/21 10:23:46;;;;;;;;;;;;;;;;;;5054089;28;19924;-85
2023/05/21 10:26:32;;;;;;;;;;;;;;;;;;5044424;28;19953;-84
2023/05/21 10:29:19;;;;;;;;;;;;;;;;;;5064527;28;19928;-84
2023/05/21 10:32:05;;;;;;;;;;;;;;;;;;5059603;28;19923;-85
2023/05/21 10:34:52;;;;;;;;;;;;;;;;;;5055793;28;19922;-87
2023/05/21 10:37:38;;;;;;;;;;;;;;;;;;5040753;28;19927;-80
2023/05/21 10:40:25;;;;;;;;;;;;;;;;;;5048457;28;20276;-80
2023/05/21 10:43:11;;;;;;;;;;;;;;;;;;5042790;28;19929;-79
2023/05/21 10:45:58;;;;;;;;;;;;;;;;;;5043623;28;19917;-79
2023/05/21 10:48:44;;;;;;;;;;;;;;;;;;5043061;28;19926;-79
2023/05/21 10:51:31;;;;;;;;;;;;;;;;;;5054218;28;19920;-79
2023/05/21 10:54:18;;;;;;;;;;;;;;;;;;5058578;28;20402;-80
2023/05/21 10:57:04;;;;;;;;;;;;;;;;;;5056590;28;19924;-79
2023/05/21 10:59:51;;;;;;;;;;;;;;;;;;5060749;28;19924;-79
2023/05/21 11:02:37;;;;;;;;;;;;;;;;;;5060352;28;20295;-79
2023/05/21 11:05:24;;;;;;;;;;;;;;;;;;5061394;28;20907;-79
2023/05/21 11:08:10;;;;;;;;;;;;;;;;;;5049818;28;19958;-80
2023/05/21 11:10:57;;;;;;;;;;;;;;;;;;5050374;28;20387;-79
2023/05/21 11:13:47;;;;;;;;;;;;;;;;;;5047103;28;20303;-79
2023/05/21 11:16:34;;;;;;;;;;;;;;;;;;5041352;28;19967;-80
2023/05/21 11:19:20;;;;;;;;;;;;;;;;;;5046460;28;19921;-80
2023/05/21 11:22:07;;;;;;;;;;;;;;;;;;5041120;28;20440;-79
2023/05/21 11:24:53;;;;;;;;;;;;;;;;;;5042406;28;19936;-79
2023/05/21 11:27:40;;;;;;;;;;;;;;;;;;5051676;28;20777;-79
2023/05/21 11:30:26;;;;;;;;;;;;;;;;;;5068063;28;19930;-79
2023/05/21 11:33:14;;;;;;;;;;;;;;;;;;5043256;28;19920;-80
2023/05/21 11:36:01;;;;;;;;;;;;;;;;;;5040409;28;19913;-80
2023/05/21 11:38:47;;;;;;;;;;;;;;;;;;5051523;28;20963;-80
2023/05/21 11:41:34;;;;;;;;;;;;;;;;;;5050114;28;19928;-79
2023/05/21 11:44:20;;;;;;;;;;;;;;;;;;5050338;28;19924;-79
2023/05/21 11:47:06;;;;;;;;;;;;;;;;;;5039624;28;19920;-79
2023/05/21 11:49:53;;;;;;;;;;;;;;;;;;5047719;28;20444;-80
2023/05/21 11:52:40;;;;;;;;;;;;;;;;;;5055393;28;19923;-80
2023/05/21 11:55:27;;;;;;;;;;;;;;;;;;5054378;28;19924;-80
2023/05/21 11:58:15;;;;;;;;;;;;;;;;;;5035627;28;19924;-80
2023/05/21 12:01:01;;;;;;;;;;;;;;;;;;5042609;28;19927;-79
2023/05/21 12:03:48;;;;;;;;;;;;;;;;;;5037179;28;19929;-79
2023/05/21 12:06:34;;;;;;;;;;;;;;;;;;5051934;28;20394;-80
2023/05/21 12:09:21;;;;;;;;;;;;;;;;;;5041736;28;19920;-78
2023/05/21 12:12:07;;;;;;;;;;;;;;;;;;5055972;28;19916;-79
2023/05/21 12:14:54;;;;;;;;;;;;;;;;;;5045790;28;20319;-80
2023/05/21 12:17:40;;;;;;;;;;;;;;;;;;5069009;28;19916;-80
2023/05/21 12:20:27;;;;;;;;;;;;;;;;;;5057676;28;20375;-79
2023/05/21 12:23:13;;;;;;;;;;;;;;;;;;5045308;28;19931;-80
2023/05/21 12:26:00;;;;;;;;;;;;;;;;;;5043064;28;20308;-80
2023/05/21 12:28:46;;;;;;;;;;;;;;;;;;5050558;28;19917;-79
2023/05/21 12:31:33;;;;;;;;;;;;;;;;;;5048847;28;19920;-79
2023/05/21 12:34:20;;;;;;;;;;;;;;;;;;5048149;28;19924;-79
2023/05/21 12:37:06;;;;;;;;;;;;;;;;;;5034215;28;19924;-79
2023/05/21 12:39:53;;;;;;;;;;;;;;;;;;5048264;28;19921;-79
2023/05/21 12:42:39;;;;;;;;;;;;;;;;;;5059853;28;19924;-79
2023/05/21 12:45:26;;;;;;;;;;;;;;;;;;5045385;28;20403;-79
2023/05/21 12:48:12;;;;;;;;;;;;;;;;;;5051052;28;19921;-78
2023/05/21 12:50:59;;;;;;;;;;;;;;;;;;5061098;28;19916;-79
2023/05/21 12:53:45;;;;;;;;;;;;;;;;;;5054200;28;20497;-80
2023/05/21 12:56:32;;;;;;;;;;;;;;;;;;5053162;28;19916;-78
2023/05/21 12:59:18;;;;;;;;;;;;;;;;;;5049200;28;20428;-79
2023/05/21 13:02:05;;;;;;;;;;;;;;;;;;5044440;28;19925;-83
2023/05/21 13:04:51;;;;;;;;;;;;;;;;;;5048249;28;19921;-84
2023/05/21 13:07:38;;;;;;;;;;;;;;;;;;5048158;28;19924;-82
2023/05/21 13:10:24;;;;;;;;;;;;;;;;;;5033625;28;20251;-81
2023/05/21 13:13:11;;;;;;;;;;;;;;;;;;5045352;28;19917;-82
2023/05/21 13:15:59;;;;;;;;;;;;;;;;;;5059785;28;19967;-83
2023/05/21 13:18:45;;;;;;;;;;;;;;;;;;5055342;28;19916;-82
2023/05/21 13:21:32;;;;;;;;;;;;;;;;;;5047362;28;19916;-82
2023/05/21 13:24:18;;;;;;;;;;;;;;;;;;5060849;28;19955;-82
2023/05/21 13:27:05;;;;;;;;;;;;;;;;;;5074897;28;19920;-84
2023/05/21 13:29:52;;;;;;;;;;;;;;;;;;5061537;28;19918;-84
2023/05/21 13:32:38;;;;;;;;;;;;;;;;;;5053427;28;19921;-83
2023/05/21 13:35:25;;;;;;;;;;;;;;;;;;5046637;28;19920;-82
2023/05/21 13:38:11;;;;;;;;;;;;;;;;;;5039154;28;19921;-82
2023/05/21 13:40:58;;;;;;;;;;;;;;;;;;5046780;28;19927;-82
2023/05/21 13:43:44;;;;;;;;;;;;;;;;;;5066499;28;19935;-80
2023/05/21 13:46:31;;;;;;;;;;;;;;;;;;5060898;28;19912;-81
2023/05/21 13:49:17;;;;;;;;;;;;;;;;;;5053750;28;19955;-83
2023/05/21 13:52:04;;;;;;;;;;;;;;;;;;5029928;28;19975;-83
2023/05/21 13:54:50;;;;;;;;;;;;;;;;;;5045736;28;20795;-82
2023/05/21 13:57:37;;;;;;;;;;;;;;;;;;5050255;28;19927;-81
2023/05/21 14:00:23;;;;;;;;;;;;;;;;;;5058760;28;19928;-80
2023/05/21 14:03:10;;;;;;;;;;;;;;;;;;5058206;28;19927;-83
2023/05/21 14:05:56;;;;;;;;;;;;;;;;;;5058269;28;19936;-83
2023/05/21 14:08:43;;;;;;;;;;;;;;;;;;5059713;28;19925;-85
2023/05/21 14:11:30;;;;;;;;;;;;;;;;;;5058537;28;19970;-80
2023/05/21 14:14:17;;;;;;;;;;;;;;;;;;5060182;28;19916;-82
2023/05/21 14:17:04;;;;;;;;;;;;;;;;;;5045475;28;19935;-81
2023/05/21 14:19:50;;;;;;;;;;;;;;;;;;5043573;28;20433;-82
2023/05/21 14:22:37;;;;;;;;;;;;;;;;;;5040495;28;19927;-81
2023/05/21 14:25:23;;;;;;;;;;;;;;;;;;5041338;28;19932;-81
2023/05/21 14:28:10;;;;;;;;;;;;;;;;;;5044339;28;19913;-82
2023/05/21 14:30:56;;;;;;;;;;;;;;;;;;5059212;28;19921;-81
2023/05/21 14:33:43;;;;;;;;;;;;;;;;;;5065676;28;20753;-80
2023/05/21 14:36:29;;;;;;;;;;;;;;;;;;5059797;28;19928;-80
2023/05/21 14:39:16;;;;;;;;;;;;;;;;;;5038815;28;19924;-80
2023/05/21 14:42:03;;;;;;;;;;;;;;;;;;5053682;28;19920;-81
2023/05/21 14:44:50;;;;;;;;;;;;;;;;;;5042218;28;20301;-81
2023/05/21 14:47:36;;;;;;;;;;;;;;;;;;5058061;28;19927;-79
2023/05/21 14:50:22;;;;;;;;;;;;;;;;;;5043802;28;19927;-79
2023/05/21 14:53:09;;;;;;;;;;;;;;;;;;5047591;28;19920;-81
2023/05/21 14:55:55;;;;;;;;;;;;;;;;;;5041239;28;19921;-82
2023/05/21 14:58:42;;;;;;;;;;;;;;;;;;5050834;28;19927;-82
2023/05/21 15:01:28;;;;;;;;;;;;;;;;;;5048908;28;19927;-81
2023/05/21 15:04:15;;;;;;;;;;;;;;;;;;5042524;28;19929;-81
2023/05/21 15:07:01;;;;;;;;;;;;;;;;;;5043477;28;19917;-81
2023/05/21 15:09:48;;;;;;;;;;;;;;;;;;5043336;28;19920;-81
2023/05/21 15:12:35;;;;;;;;;;;;;;;;;;5041720;28;19927;-82
2023/05/21 15:15:21;;;;;;;;;;;;;;;;;;5038142;28;19925;-83
2023/05/21 15:18:07;;;;;;;;;;;;;;;;;;5039829;28;19920;-84
2023/05/21 15:20:54;;;;;;;;;;;;;;;;;;5040703;28;19920;-80
2023/05/21 15:23:41;;;;;;;;;;;;;;;;;;5035935;28;19935;-81
2023/05/21 15:26:27;;;;;;;;;;;;;;;;;;5027530;28;20671;-82
2023/05/21 15:29:14;;;;;;;;;;;;;;;;;;5044389;28;19921;-80
2023/05/21 15:32:03;;;;;;;;;;;;;;;;;;5034937;28;19917;-80
2023/05/21 15:34:50;;;;;;;;;;;;;;;;;;5040354;28;20289;-82
2023/05/21 15:37:37;;;;;;;;;;;;;;;;;;5040206;28;20596;-81
2023/05/21 15:40:23;;;;;;;;;;;;;;;;;;5034009;28;19921;-82
2023/05/21 15:43:10;;;;;;;;;;;;;;;;;;5029044;28;19944;-83
2023/05/21 15:45:56;;;;;;;;;;;;;;;;;;5035586;28;19925;-80
2023/05/21 15:48:43;;;;;;;;;;;;;;;;;;5042279;28;19936;-80
2023/05/21 15:51:29;;;;;;;;;;;;;;;;;;5037656;28;19928;-81
2023/05/21 15:54:16;;;;;;;;;;;;;;;;;;5046760;28;19921;-78
2023/05/21 15:57:02;;;;;;;;;;;;;;;;;;5039316;28;19917;-77
2023/05/21 15:59:49;;;;;;;;;;;;;;;;;;5033725;28;20270;-78
2023/05/21 16:02:36;;;;;;;;;;;;;;;;;;5030260;28;19928;-78
2023/05/21 16:05:22;;;;;;;;;;;;;;;;;;5029604;28;19921;-78
2023/05/21 16:08:10;;;;;;;;;;;;;;;;;;5031482;28;19921;-80
2023/05/21 16:10:57;;;;;;;;;;;;;;;;;;5041423;28;19924;-79
2023/05/21 16:13:43;;;;;;;;;;;;;;;;;;5034818;28;21042;-78
2023/05/21 16:16:30;;;;;;;;;;;;;;;;;;5039675;28;19958;-78
2023/05/21 16:19:17;;;;;;;;;;;;;;;;;;5028143;28;19932;-79
2023/05/21 16:22:03;;;;;;;;;;;;;;;;;;5031278;28;19923;-79
2023/05/21 16:24:50;;;;;;;;;;;;;;;;;;5038241;28;19955;-79
2023/05/21 16:27:36;;;;;;;;;;;;;;;;;;5030542;28;19928;-79
2023/05/21 16:30:23;;;;;;;;;;;;;;;;;;5028549;28;19927;-79
2023/05/21 16:33:11;;;;;;;;;;;;;;;;;;5033856;28;19917;-80
2023/05/21 16:35:57;;;;;;;;;;;;;;;;;;5037250;28;19916;-81
2023/05/21 16:38:44;;;;;;;;;;;;;;;;;;5036917;28;19928;-79
2023/05/21 16:41:30;;;;;;;;;;;;;;;;;;5039789;28;19921;-79
2023/05/21 16:44:17;;;;;;;;;;;;;;;;;;5035457;28;19928;-80
2023/05/21 16:47:03;;;;;;;;;;;;;;;;;;5031694;28;19937;-78
2023/05/21 16:49:50;;;;;;;;;;;;;;;;;;5041174;28;19924;-79
2023/05/21 16:52:36;;;;;;;;;;;;;;;;;;5036457;28;20400;-77
2023/05/21 16:55:23;;;;;;;;;;;;;;;;;;5036476;28;19931;-78
2023/05/21 16:58:09;;;;;;;;;;;;;;;;;;5050304;28;19955;-78
2023/05/21 17:00:56;;;;;;;;;;;;;;;;;;5033088;28;19932;-78
2023/05/21 17:03:42;;;;;;;;;;;;;;;;;;5042853;28;19929;-78
2023/05/21 17:06:30;;;;;;;;;;;;;;;;;;5045189;28;19917;-79
2023/05/21 17:09:16;;;;;;;;;;;;;;;;;;5026739;28;19921;-78
2023/05/21 17:12:03;;;;;;;;;;;;;;;;;;5040171;28;19928;-78
2023/05/21 17:14:50;;;;;;;;;;;;;;;;;;5041932;28;20000;-78
2023/05/21 17:17:37;;;;;;;;;;;;;;;;;;5038131;28;19917;-79
2023/05/21 17:20:24;;;;;;;;;;;;;;;;;;5040437;28;19928;-78
2023/05/21 17:23:10;;;;;;;;;;;;;;;;;;5040171;28;20011;-79
2023/05/21 17:25:57;;;;;;;;;;;;;;;;;;5040072;28;19928;-79
2023/05/21 17:28:43;;;;;;;;;;;;;;;;;;5041620;28;21434;-79
2023/05/21 17:31:31;;;;;;;;;;;;;;;;;;5036606;28;19913;-79
2023/05/21 17:34:17;;;;;;;;;;;;;;;;;;5037941;28;19924;-80
2023/05/21 17:37:04;;;;;;;;;;;;;;;;;;5035657;28;19921;-79
2023/05/21 17:39:50;;;;;;;;;;;;;;;;;;5037950;28;19924;-80
2023/05/21 17:42:37;;;;;;;;;;;;;;;;;;5035879;28;19920;-79
2023/05/21 17:45:23;;;;;;;;;;;;;;;;;;5035454;28;19929;-79
2023/05/21 17:48:10;;;;;;;;;;;;;;;;;;5037327;28;19923;-78
2023/05/21 17:50:57;;;;;;;;;;;;;;;;;;5034584;28;19924;-79
2023/05/21 17:53:43;;;;;;;;;;;;;;;;;;5033148;28;20554;-80
2023/05/21 17:56:37;;;;;;;;;;;;;;;;;;5044831;28;19917;-83
2023/05/21 17:59:23;;;;;;;;;;;;;;;;;;5042781;28;19917;-79
2023/05/21 18:02:10;;;;;;;;;;;;;;;;;;5039322;28;19917;-79
2023/05/21 18:04:56;;;;;;;;;;;;;;;;;;5034503;28;19929;-80
2023/05/21 18:07:43;;;;;;;;;;;;;;;;;;5040388;28;19959;-80
2023/05/21 18:10:29;;;;;;;;;;;;;;;;;;5040705;28;20359;-80
2023/05/21 18:13:16;;;;;;;;;;;;;;;;;;5042886;28;19921;-79
2023/05/21 18:16:02;;;;;;;;;;;;;;;;;;5041884;28;20412;-80
2023/05/21 18:18:49;;;;;;;;;;;;;;;;;;5031390;28;20368;-80
2023/05/21 18:21:36;;;;;;;;;;;;;;;;;;5041299;28;19927;-80
2023/05/21 18:24:22;;;;;;;;;;;;;;;;;;5043743;28;19925;-80
2023/05/21 18:27:08;;;;;;;;;;;;;;;;;;5042373;28;19921;-82
2023/05/21 18:29:55;;;;;;;;;;;;;;;;;;5042470;28;19927;-82
2023/05/21 18:32:42;;;;;;;;;;;;;;;;;;5040469;28;20408;-81
2023/05/21 18:35:29;;;;;;;;;;;;;;;;;;5036481;28;19921;-78
2023/05/21 18:38:16;;;;;;;;;;;;;;;;;;5040006;28;19916;-79
2023/05/21 18:41:03;;;;;;;;;;;;;;;;;;5043957;28;19949;-79
2023/05/21 18:43:50;;;;;;;;;;;;;;;;;;5035885;28;19921;-79
2023/05/21 18:46:37;;;;;;;;;;;;;;;;;;5033023;28;19932;-79
2023/05/21 18:49:23;;;;;;;;;;;;;;;;;;5034368;28;19917;-78
2023/05/21 18:52:09;;;;;;;;;;;;;;;;;;5041461;28;19924;-79
2023/05/21 18:54:56;;;;;;;;;;;;;;;;;;5040941;28;19932;-79
2023/05/21 18:57:43;;;;;;;;;;;;;;;;;;5032387;28;19921;-78